Time;durP1;ratioP1;P1;durP2;ratioP2;P2;SDS_P1;SDS_P2;PMS_P1;PMS_P2;Temp;Humidity;BMP_temperature;BMP_pressure;BME280_temperature;BME280_humidity;BME280_pressure;Samples;Min_cycle;Max_cycle;Signal;HPM_P1;HPM_P2
2022/09/07 00:01:28;;;;;;;17.35;7.47;;;;;;;19.00;100.00;96191.06;5039163;28;20205;-71
2022/09/07 00:03:55;;;;;;;18.33;7.10;;;;;;;19.03;100.00;96192.47;5038007;28;20215;-71
2022/09/07 00:06:22;;;;;;;17.75;7.80;;;;;;;19.04;100.00;96183.38;5039070;28;20304;-71
2022/09/07 00:08:48;;;;;;;15.93;7.05;;;;;;;19.01;100.00;96194.53;5038879;28;20225;-71
2022/09/07 00:11:17;;;;;;;22.98;7.60;;;;;;;19.01;100.00;96195.34;5038458;28;20202;-71
2022/09/07 00:13:47;;;;;;;15.13;7.28;;;;;;;18.91;100.00;96188.94;5037672;28;20205;-71
2022/09/07 00:16:15;;;;;;;18.08;6.75;;;;;;;18.94;100.00;96189.31;5038537;28;20233;-71
2022/09/07 00:18:42;;;;;;;22.17;8.60;;;;;;;18.89;100.00;96192.88;5039037;28;20462;-71
2022/09/07 00:21:10;;;;;;;15.63;7.78;;;;;;;18.98;100.00;96187.00;5038528;28;20209;-71
2022/09/07 00:23:38;;;;;;;16.05;7.72;;;;;;;18.99;100.00;96185.94;5037935;28;20201;-71
2022/09/07 00:26:07;;;;;;;16.65;7.97;;;;;;;19.03;100.00;96171.09;5038005;28;20233;-71
2022/09/07 00:28:34;;;;;;;14.15;8.13;;;;;;;19.00;100.00;96172.38;5037248;28;20235;-71
2022/09/07 00:31:02;;;;;;;13.77;7.60;;;;;;;18.96;100.00;96181.06;5037998;28;20583;-71
2022/09/07 00:33:29;;;;;;;18.67;7.95;;;;;;;18.89;100.00;96185.69;5038166;28;20220;-71
2022/09/07 00:35:57;;;;;;;15.73;7.70;;;;;;;18.96;100.00;96178.38;5037755;28;20230;-71
2022/09/07 00:38:24;;;;;;;17.58;7.75;;;;;;;18.98;100.00;96162.97;5038517;28;20197;-71
2022/09/07 00:40:50;;;;;;;16.63;7.28;;;;;;;18.98;100.00;96160.28;5038526;28;20217;-71
2022/09/07 00:43:28;;;;;;;21.65;7.82;;;;;;;19.03;100.00;96155.06;5037868;28;20205;-71
2022/09/07 00:45:55;;;;;;;17.52;8.10;;;;;;;18.96;100.00;96162.38;5038242;28;20561;-71
2022/09/07 00:48:27;;;;;;;17.38;7.63;;;;;;;19.01;100.00;96157.94;5038990;28;20367;-71
2022/09/07 00:50:58;;;;;;;18.45;7.45;;;;;;;19.03;100.00;96152.41;5037629;28;20217;-71
2022/09/07 00:53:28;;;;;;;11.63;7.75;;;;;;;19.02;100.00;96142.75;5037240;28;20212;-71
2022/09/07 00:55:56;;;;;;;13.40;7.43;;;;;;;19.01;100.00;96141.13;5038348;28;20653;-71
2022/09/07 00:58:23;;;;;;;17.13;7.95;;;;;;;18.98;100.00;96142.41;5038435;28;20680;-71
2022/09/07 01:00:51;;;;;;;24.02;9.52;;;;;;;18.93;100.00;96138.78;5037628;28;20201;-71
2022/09/07 01:03:22;;;;;;;15.68;8.65;;;;;;;19.05;100.00;96135.09;5038068;28;20240;-71
2022/09/07 01:05:56;;;;;;;17.67;8.63;;;;;;;19.07;100.00;96126.88;5037780;28;20205;-71
2022/09/07 01:08:24;;;;;;;21.73;9.32;;;;;;;19.03;100.00;96128.38;5037947;28;20225;-71
2022/09/07 01:10:50;;;;;;;25.45;8.77;;;;;;;18.82;100.00;96126.22;5034369;28;20214;-71
2022/09/07 01:13:17;;;;;;;22.55;9.48;;;;;;;18.81;100.00;96121.13;5037495;28;20213;-71
2022/09/07 01:15:50;;;;;;;15.02;8.25;;;;;;;18.81;100.00;96121.94;5037498;28;20296;-71
2022/09/07 01:18:25;;;;;;;14.77;7.80;;;;;;;18.79;100.00;96121.34;5037849;28;20216;-71
2022/09/07 01:21:20;;;;;;;14.75;7.88;;;;;;;18.86;100.00;96115.91;5037793;28;20204;-71
2022/09/07 01:24:17;;;;;;;14.88;7.05;;;;;;;18.85;100.00;96106.25;5036670;28;20212;-71
2022/09/07 01:27:02;;;;;;;15.68;7.35;;;;;;;18.98;100.00;96112.22;5037455;28;20224;-71
2022/09/07 01:29:35;;;;;;;13.70;6.68;;;;;;;18.89;100.00;96105.59;5037394;28;20221;-71
2022/09/07 01:32:10;;;;;;;16.75;7.20;;;;;;;18.80;100.00;96106.13;5037197;28;20234;-71
2022/09/07 01:34:37;;;;;;;11.80;7.22;;;;;;;18.75;100.00;96101.50;5037472;28;20211;-71
2022/09/07 01:37:15;;;;;;;16.13;7.25;;;;;;;18.80;100.00;96117.66;5037109;28;20229;-71
2022/09/07 01:39:48;;;;;;;15.07;7.10;;;;;;;18.80;100.00;96127.50;5037584;28;20229;-71
2022/09/07 01:42:17;;;;;;;12.07;6.65;;;;;;;18.74;100.00;96145.25;5036130;28;20205;-71
2022/09/07 01:44:50;;;;;;;11.82;7.15;;;;;;;18.71;100.00;96144.91;5037846;28;20216;-71
2022/09/07 01:47:19;;;;;;;11.77;6.57;;;;;;;18.69;100.00;96131.78;5036871;28;20228;-71
2022/09/07 01:49:52;;;;;;;15.38;7.00;;;;;;;18.70;100.00;96135.25;5037415;28;20224;-71
2022/09/07 01:52:25;;;;;;;13.52;6.82;;;;;;;18.71;100.00;96137.72;5036013;28;20197;-71
2022/09/07 01:54:59;;;;;;;11.63;6.93;;;;;;;18.72;100.00;96128.66;5037471;28;20224;-71
2022/09/07 01:57:31;;;;;;;19.67;7.32;;;;;;;18.79;100.00;96129.38;5035686;28;20217;-71
2022/09/07 02:00:06;;;;;;;15.93;7.22;;;;;;;18.85;100.00;96130.28;5037918;28;20212;-71
2022/09/07 02:02:39;;;;;;;15.05;7.57;;;;;;;18.80;100.00;96128.34;5035472;28;20200;-71
2022/09/07 02:05:09;;;;;;;18.10;8.38;;;;;;;18.76;100.00;96126.34;5036767;28;20209;-71
2022/09/07 02:07:42;;;;;;;16.33;8.13;;;;;;;18.84;100.00;96134.00;5037201;28;20231;-71
2022/09/07 02:10:12;;;;;;;14.90;7.55;;;;;;;18.81;100.00;96129.13;5036872;28;20205;-71
2022/09/07 02:12:45;;;;;;;16.98;8.55;;;;;;;18.80;100.00;96117.66;5036105;28;21014;-71
2022/09/07 02:15:17;;;;;;;18.95;8.80;;;;;;;18.78;100.00;96125.06;5036885;28;20209;-71
2022/09/07 02:17:48;;;;;;;18.17;8.35;;;;;;;18.68;100.00;96138.16;5036414;28;20221;-71
2022/09/07 02:20:19;;;;;;;16.67;7.93;;;;;;;18.66;100.00;96137.59;5036766;28;20209;-71
2022/09/07 02:22:51;;;;;;;17.10;8.05;;;;;;;18.63;100.00;96143.38;5036411;28;20211;-71
2022/09/07 02:25:22;;;;;;;14.70;7.60;;;;;;;18.56;100.00;96139.19;5036131;28;20196;-71
2022/09/07 02:27:52;;;;;;;15.20;7.93;;;;;;;18.61;100.00;96149.97;5036791;28;20224;-71
2022/09/07 02:30:20;;;;;;;17.33;7.80;;;;;;;18.64;100.00;96139.66;5032360;28;20212;-71
2022/09/07 02:32:47;;;;;;;21.65;8.05;;;;;;;18.58;100.00;96129.09;5035632;28;20223;-71
2022/09/07 02:35:14;;;;;;;16.60;7.65;;;;;;;18.65;100.00;96135.97;5036249;28;20224;-71
2022/09/07 02:37:43;;;;;;;15.23;7.80;;;;;;;18.68;100.00;96124.00;5036742;28;20228;-71
2022/09/07 02:40:10;;;;;;;14.82;7.60;;;;;;;18.64;100.00;96125.50;5036435;28;20201;-71
2022/09/07 02:42:38;;;;;;;14.32;7.95;;;;;;;18.72;100.00;96122.50;5035876;28;20197;-71
2022/09/07 02:45:08;;;;;;;14.20;7.45;;;;;;;18.76;100.00;96127.16;5035650;28;20205;-71
2022/09/07 02:47:49;;;;;;;17.63;7.35;;;;;;;18.87;100.00;96122.88;5036272;28;20570;-71
2022/09/07 02:50:44;;;;;;;13.60;7.63;;;;;;;18.91;100.00;96118.72;5035851;28;20217;-71
2022/09/07 02:53:26;;;;;;;15.35;7.75;;;;;;;18.85;100.00;96120.44;5035196;28;20205;-71
2022/09/07 02:56:05;;;;;;;17.85;7.93;;;;;;;18.88;100.00;96117.31;5036294;28;20205;-71
2022/09/07 02:58:37;;;;;;;17.65;7.18;;;;;;;18.84;100.00;96118.81;5036252;28;20221;-71
2022/09/07 03:01:09;;;;;;;11.18;6.80;;;;;;;18.91;100.00;96119.50;5037066;28;20209;-71
2022/09/07 03:03:46;;;;;;;17.75;6.80;;;;;;;18.93;100.00;96122.78;5035110;28;20212;-71
2022/09/07 03:06:21;;;;;;;18.75;7.80;;;;;;;18.86;100.00;96113.25;5036093;28;20216;-71
2022/09/07 03:08:51;;;;;;;13.07;6.63;;;;;;;18.81;100.00;96118.47;5036706;28;20235;-71
2022/09/07 03:11:18;;;;;;;20.20;7.43;;;;;;;18.74;100.00;96123.91;5035566;28;20217;-71
2022/09/07 03:13:44;;;;;;;13.73;7.15;;;;;;;18.70;100.00;96132.59;5035335;28;20208;-71
2022/09/07 03:16:13;;;;;;;16.38;7.20;;;;;;;18.82;100.00;96130.78;5036472;28;20251;-71
2022/09/07 03:18:42;;;;;;;11.27;6.55;;;;;;;18.72;100.00;96135.84;5036525;28;20795;-71
2022/09/07 03:21:08;;;;;;;15.68;6.80;;;;;;;18.61;100.00;96140.13;5035888;28;20244;-71
2022/09/07 03:23:36;;;;;;;15.55;7.38;;;;;;;18.67;100.00;96141.91;5035339;28;20201;-71
2022/09/07 03:26:03;;;;;;;18.60;7.35;;;;;;;18.71;100.00;96140.38;5035965;28;20260;-71
2022/09/07 03:28:29;;;;;;;12.60;6.53;;;;;;;18.61;100.00;96134.78;5036299;28;20236;-71
2022/09/07 03:30:56;;;;;;;16.08;7.07;;;;;;;18.69;100.00;96131.78;5035335;28;20264;-71
2022/09/07 03:33:22;;;;;;;15.05;6.78;;;;;;;18.62;100.00;96122.25;5035635;28;20208;-71
2022/09/07 03:35:59;;;;;;;14.20;6.65;;;;;;;18.82;100.00;96120.88;5035486;28;20574;-71
2022/09/07 03:38:25;;;;;;;12.60;6.40;;;;;;;18.73;100.00;96127.59;5035630;28;20208;-71
2022/09/07 03:40:57;;;;;;;14.05;7.65;;;;;;;18.79;100.00;96121.34;5035949;28;20509;-71
2022/09/07 03:43:24;;;;;;;14.35;6.50;;;;;;;18.67;100.00;96127.72;5034617;28;20217;-71
2022/09/07 03:45:50;;;;;;;12.00;7.13;;;;;;;18.59;100.00;96123.50;5035377;28;20212;-71
2022/09/07 03:48:17;;;;;;;12.05;6.47;;;;;;;18.55;100.00;96125.00;5035447;28;20213;-71
2022/09/07 03:50:43;;;;;;;12.50;6.50;;;;;;;18.54;100.00;96126.06;5035639;28;20666;-71
2022/09/07 03:53:11;;;;;;;16.65;7.25;;;;;;;18.59;100.00;96125.38;5035351;28;20228;-71
2022/09/07 03:55:37;;;;;;;12.90;6.65;;;;;;;18.55;100.00;96125.00;5035511;28;20208;-71
2022/09/07 03:58:04;;;;;;;12.93;7.05;;;;;;;18.53;100.00;96120.94;5035914;28;20229;-71
2022/09/07 04:00:30;;;;;;;14.63;6.80;;;;;;;18.52;100.00;96114.81;5035446;28;20579;-71
2022/09/07 04:02:57;;;;;;;15.43;6.57;;;;;;;18.49;100.00;96115.25;5035073;28;20212;-71
2022/09/07 04:05:23;;;;;;;14.45;6.88;;;;;;;18.47;100.00;96122.69;5038993;28;20204;-71
2022/09/07 04:07:51;;;;;;;17.88;7.40;;;;;;;18.55;100.00;96114.34;5038837;28;20232;-71
2022/09/07 04:10:19;;;;;;;12.95;7.25;;;;;;;18.64;100.00;96117.50;5038672;28;20220;-71
2022/09/07 04:12:45;;;;;;;13.23;6.82;;;;;;;18.48;100.00;96129.66;5039394;28;20201;-71
2022/09/07 04:15:12;;;;;;;12.88;7.03;;;;;;;18.48;100.00;96124.31;5038399;28;20749;-71
2022/09/07 04:17:38;;;;;;;12.95;7.05;;;;;;;18.51;100.00;96136.41;5038954;28;20264;-71
2022/09/07 04:20:06;;;;;;;15.02;7.60;;;;;;;18.60;100.00;96143.84;5039173;28;20204;-71
2022/09/07 04:22:33;;;;;;;25.00;7.90;;;;;;;18.63;100.00;96137.22;5038834;28;20756;-71
2022/09/07 04:24:59;;;;;;;13.98;7.18;;;;;;;18.57;100.00;96143.47;5038438;28;20201;-71
2022/09/07 04:27:27;;;;;;;14.82;7.57;;;;;;;18.76;100.00;96143.19;5038739;28;20229;-71
2022/09/07 04:29:53;;;;;;;14.88;7.97;;;;;;;18.76;100.00;96143.19;5039401;28;20259;-71
2022/09/07 04:32:20;;;;;;;16.63;7.20;;;;;;;18.75;100.00;96152.22;5037926;28;20224;-71
2022/09/07 04:34:47;;;;;;;22.77;7.25;;;;;;;18.76;100.00;96148.53;5039161;28;20205;-71
2022/09/07 04:37:14;;;;;;;12.60;7.55;;;;;;;18.71;100.00;96140.38;5038604;28;20225;-71
2022/09/07 04:39:40;;;;;;;18.52;8.32;;;;;;;18.72;100.00;96143.84;5038543;28;20217;-71
2022/09/07 04:42:07;;;;;;;14.73;7.75;;;;;;;18.84;100.00;96144.69;5038083;28;20212;-71
2022/09/07 04:44:35;;;;;;;16.67;7.97;;;;;;;18.94;100.00;96146.56;5038327;28;20208;-71
2022/09/07 04:47:01;;;;;;;16.42;8.60;;;;;;;18.83;100.00;96146.56;5038138;28;21092;-71
2022/09/07 04:49:27;;;;;;;20.38;8.27;;;;;;;18.93;100.00;96152.94;5038591;28;20935;-71
2022/09/07 04:51:54;;;;;;;17.63;9.35;;;;;;;18.94;100.00;96161.78;5037528;28;20256;-71
2022/09/07 04:54:20;;;;;;;18.88;9.52;;;;;;;18.96;100.00;96163.19;5038222;28;20217;-71
2022/09/07 04:56:47;;;;;;;16.13;9.10;;;;;;;19.05;100.00;96174.34;5037901;28;20222;-71
2022/09/07 04:59:13;;;;;;;21.58;9.88;;;;;;;18.97;100.00;96172.81;5037778;28;20197;-71
2022/09/07 05:01:41;;;;;;;21.40;9.45;;;;;;;19.02;100.00;96175.59;5038022;28;20558;-71
2022/09/07 05:04:07;;;;;;;16.30;8.98;;;;;;;18.89;100.00;96175.00;5037634;28;20205;-71
2022/09/07 05:06:34;;;;;;;23.27;9.60;;;;;;;18.92;100.00;96179.88;5037963;28;20243;-71
2022/09/07 05:09:01;;;;;;;17.85;9.45;;;;;;;19.03;100.00;96182.59;5038203;28;20646;-71
2022/09/07 05:11:28;;;;;;;18.30;9.43;;;;;;;19.03;100.00;96179.91;5038180;28;20292;-71
2022/09/07 05:13:55;;;;;;;23.00;10.18;;;;;;;19.00;100.00;96183.06;5036686;28;20208;-71
2022/09/07 05:16:24;;;;;;;16.85;9.30;;;;;;;19.06;100.00;96179.47;5038337;28;21064;-71
2022/09/07 05:18:54;;;;;;;19.30;9.70;;;;;;;19.02;100.00;96180.16;5037807;28;20209;-71
2022/09/07 05:21:22;;;;;;;15.75;8.70;;;;;;;18.99;100.00;96180.59;5037444;28;20197;-71
2022/09/07 05:23:50;;;;;;;18.00;9.23;;;;;;;18.89;100.00;96185.69;5037232;28;20208;-71
2022/09/07 05:26:17;;;;;;;16.67;8.65;;;;;;;18.93;100.00;96194.88;5037826;28;20330;-71
2022/09/07 05:28:44;;;;;;;18.77;9.30;;;;;;;18.95;100.00;96195.44;5036268;28;20228;-71
2022/09/07 05:31:12;;;;;;;20.73;8.88;;;;;;;19.01;100.00;96199.88;5037856;28;20205;-71
2022/09/07 05:33:39;;;;;;;19.08;9.05;;;;;;;18.93;100.00;96197.53;5037388;28;20282;-71
2022/09/07 05:36:07;;;;;;;19.40;8.93;;;;;;;18.98;100.00;96192.34;5037032;28;20724;-71
2022/09/07 05:38:35;;;;;;;16.20;8.63;;;;;;;18.89;100.00;96190.22;5036851;28;20197;-71
2022/09/07 05:41:10;;;;;;;21.08;8.98;;;;;;;19.03;100.00;96198.59;5037704;28;20204;-71
2022/09/07 05:43:36;;;;;;;19.23;8.85;;;;;;;18.96;100.00;96200.59;5036304;28;20200;-71
2022/09/07 05:46:03;;;;;;;17.00;8.82;;;;;;;18.93;100.00;96205.56;5036390;28;21491;-71
2022/09/07 05:48:29;;;;;;;16.45;9.30;;;;;;;18.85;100.00;96205.91;5037495;28;20213;-71
2022/09/07 05:50:56;;;;;;;15.60;9.23;;;;;;;18.86;100.00;96210.16;5037128;28;20721;-71
2022/09/07 05:53:24;;;;;;;24.33;8.63;;;;;;;18.99;100.00;96208.13;5036315;28;20200;-71
2022/09/07 05:55:50;;;;;;;16.30;8.52;;;;;;;18.90;100.00;96208.66;5037174;28;20217;-71
2022/09/07 05:58:17;;;;;;;16.45;9.10;;;;;;;18.92;100.00;96214.59;5036468;28;20209;-71
2022/09/07 06:00:44;;;;;;;15.50;8.23;;;;;;;18.88;100.00;96216.09;5037372;28;20200;-71
2022/09/07 06:03:10;;;;;;;19.52;9.63;;;;;;;18.97;100.00;96215.53;5036198;28;20205;-71
2022/09/07 06:05:37;;;;;;;21.08;8.30;;;;;;;18.95;100.00;96217.66;5037537;28;20204;-71
2022/09/07 06:08:04;;;;;;;18.10;9.35;;;;;;;18.86;100.00;96223.53;5036439;28;20240;-71
2022/09/07 06:10:35;;;;;;;19.73;8.07;;;;;;;19.08;100.00;96217.47;5036608;28;20582;-71
2022/09/07 06:13:02;;;;;;;13.48;6.40;;;;;;;19.05;100.00;96212.56;5036521;28;20205;-71
2022/09/07 06:15:28;;;;;;;18.00;8.30;;;;;;;19.20;100.00;96207.59;5036571;28;20205;-71
2022/09/07 06:17:55;;;;;;;22.45;8.43;;;;;;;19.12;100.00;96205.28;5036687;28;20225;-71
2022/09/07 06:20:21;;;;;;;18.27;8.70;;;;;;;19.40;100.00;96204.59;5036642;28;20193;-71
2022/09/07 06:22:48;;;;;;;16.65;8.40;;;;;;;19.23;100.00;96203.66;5036145;28;20212;-71
2022/09/07 06:25:14;;;;;;;17.23;7.60;;;;;;;19.46;100.00;96198.31;5036327;28;20264;-71
2022/09/07 06:27:42;;;;;;;13.60;7.35;;;;;;;19.64;100.00;96204.38;5036477;28;20217;-71
2022/09/07 06:30:09;;;;;;;15.75;8.43;;;;;;;19.66;100.00;96200.41;5036149;28;20233;-71
2022/09/07 06:32:37;;;;;;;14.20;6.50;;;;;;;19.66;100.00;96200.41;5035439;28;20498;-71
2022/09/07 06:35:03;;;;;;;12.68;7.03;;;;;;;19.73;100.00;96209.13;5035876;28;20317;-71
2022/09/07 06:37:30;;;;;;;20.65;8.30;;;;;;;19.69;100.00;96209.81;5036518;28;20317;-71
2022/09/07 06:39:56;;;;;;;15.20;7.57;;;;;;;19.81;100.00;96213.31;5035006;28;20372;-71
2022/09/07 06:42:22;;;;;;;12.98;6.80;;;;;;;19.94;100.00;96213.91;5033088;28;21208;-71
2022/09/07 06:44:50;;;;;;;23.95;7.53;;;;;;;20.13;100.00;96217.25;5035568;28;20661;-71
2022/09/07 06:47:17;;;;;;;15.93;7.93;;;;;;;20.09;100.00;96224.13;5035278;28;20665;-71
2022/09/07 06:49:43;;;;;;;13.93;7.18;;;;;;;20.07;100.00;96223.53;5035838;28;20705;-71
2022/09/07 06:52:10;;;;;;;13.65;6.93;;;;;;;20.13;100.00;96219.94;5035339;28;20205;-71
2022/09/07 06:54:36;;;;;;;16.08;6.85;;;;;;;20.21;100.00;96225.72;5035132;28;20639;-71
2022/09/07 06:57:07;;;;;;;12.57;6.70;;;;;;;20.23;100.00;96224.41;5033780;28;20591;-71
2022/09/07 06:59:33;;;;;;;10.38;6.25;;;;;;;20.46;100.00;96228.91;5033918;28;20198;-72
2022/09/07 07:02:01;;;;;;;12.85;6.47;;;;;;;20.68;100.00;96229.88;5032845;28;20669;-72
2022/09/07 07:04:28;;;;;;;11.45;6.40;;;;;;;20.74;100.00;96228.97;5033000;28;20666;-72
2022/09/07 07:06:54;;;;;;;15.05;5.95;;;;;;;20.86;100.00;96225.97;5033797;28;20675;-72
2022/09/07 07:09:20;;;;;;;9.70;5.65;;;;;;;20.88;100.00;96236.44;5034007;28;20579;-72
2022/09/07 07:11:47;;;;;;;10.73;5.85;;;;;;;20.76;100.00;96240.22;5034459;28;20568;-72
2022/09/07 07:14:14;;;;;;;8.32;5.35;;;;;;;20.92;100.00;96237.59;5034827;28;20600;-72
2022/09/07 07:16:41;;;;;;;8.30;4.85;;;;;;;20.85;100.00;96236.94;5035735;28;20220;-72
2022/09/07 07:19:09;;;;;;;9.75;5.00;;;;;;;20.94;100.00;96241.66;5035347;28;20213;-72
2022/09/07 07:21:35;;;;;;;12.02;5.32;;;;;;;20.85;100.00;96243.09;5035016;28;20201;-72
2022/09/07 07:24:02;;;;;;;10.52;4.32;;;;;;;20.87;100.00;96248.22;5034761;28;20772;-72
2022/09/07 07:26:29;;;;;;;11.82;4.38;;;;;;;20.95;100.00;96250.50;5034755;28;20617;-72
2022/09/07 07:28:56;;;;;;;9.48;4.22;;;;;;;21.05;100.00;96238.13;5035114;28;20201;-72
2022/09/07 07:31:24;;;;;;;8.07;4.35;;;;;;;21.09;100.00;96246.47;5034797;28;20221;-72
2022/09/07 07:33:52;;;;;;;11.93;4.13;;;;;;;21.05;100.00;96248.84;5034699;28;20205;-72
2022/09/07 07:36:21;;;;;;;10.15;4.15;;;;;;;21.17;100.00;96238.84;5034694;28;20228;-72
2022/09/07 07:38:49;;;;;;;8.40;3.83;;;;;;;21.25;100.00;96241.13;5036172;28;20357;-72
2022/09/07 07:41:18;;;;;;;9.43;4.00;;;;;;;21.19;100.00;96244.75;5038767;28;20202;-72
2022/09/07 07:43:45;;;;;;;6.72;3.70;;;;;;;21.17;100.00;96248.78;5038445;28;20620;-72
2022/09/07 07:46:13;;;;;;;12.13;4.25;;;;;;;21.27;100.00;96243.56;5039128;28;20224;-72
2022/09/07 07:48:39;;;;;;;13.82;4.45;;;;;;;21.35;100.00;96246.66;5039162;28;20509;-72
2022/09/07 07:51:09;;;;;;;11.88;4.00;;;;;;;21.57;100.00;96236.88;5038884;28;20239;-72
2022/09/07 07:53:39;;;;;;;9.18;3.50;;;;;;;21.63;100.00;96234.00;5038568;28;20200;-72
2022/09/07 07:56:06;;;;;;;7.65;3.35;;;;;;;21.82;100.00;96237.25;5039555;28;20221;-72
2022/09/07 07:58:37;;;;;;;14.90;3.85;;;;;;;21.94;100.00;96241.44;5038715;28;20296;-72
2022/09/07 08:01:06;;;;;;;5.65;3.55;;;;;;;22.11;100.00;96236.88;5038090;28;20570;-72
2022/09/07 08:03:35;;;;;;;7.75;3.47;;;;;;;22.11;100.00;96232.31;5038739;28;20654;-72
2022/09/07 08:06:06;;;;;;;6.88;3.10;;;;;;;22.31;100.00;96240.66;5038470;28;20201;-72
2022/09/07 08:08:34;;;;;;;8.82;3.40;;;;;;;22.15;100.00;96241.47;5038653;28;20669;-72
2022/09/07 08:11:04;;;;;;;6.13;2.97;;;;;;;22.14;99.91;96247.91;5038196;28;20626;-72
2022/09/07 08:13:32;;;;;;;9.68;2.95;;;;;;;22.05;99.19;96254.75;5037813;28;20673;-72
2022/09/07 08:15:59;;;;;;;6.30;3.17;;;;;;;22.07;99.53;96258.03;5038145;28;20263;-72
2022/09/07 08:18:26;;;;;;;9.88;3.38;;;;;;;22.09;100.00;96260.44;5038752;28;20204;-72
2022/09/07 08:20:53;;;;;;;6.30;3.10;;;;;;;21.89;100.00;96260.16;5038593;28;20208;-72
2022/09/07 08:23:20;;;;;;;11.15;3.10;;;;;;;21.90;100.00;96261.78;5036990;28;20679;-72
2022/09/07 08:25:50;;;;;;;8.45;3.08;;;;;;;21.90;100.00;96260.97;5038736;28;20735;-72
2022/09/07 08:28:18;;;;;;;8.25;3.47;;;;;;;21.95;99.74;96264.53;5038212;28;20201;-72
2022/09/07 08:30:45;;;;;;;9.30;2.88;;;;;;;21.98;100.00;96261.34;5038274;28;20221;-72
2022/09/07 08:33:11;;;;;;;4.38;2.97;;;;;;;22.15;98.48;96260.28;5037283;28;20201;-72
2022/09/07 08:35:38;;;;;;;5.63;2.65;;;;;;;22.26;97.11;96259.41;5038924;28;20205;-72
2022/09/07 08:38:04;;;;;;;7.10;3.35;;;;;;;22.52;96.86;96268.59;5037449;28;20235;-72
2022/09/07 08:40:35;;;;;;;9.85;2.53;;;;;;;22.49;94.52;96261.84;5038292;28;20193;-72
2022/09/07 08:43:09;;;;;;;6.40;2.35;;;;;;;22.71;93.35;96254.59;5037358;28;20205;-72
2022/09/07 08:45:43;;;;;;;3.50;2.38;;;;;;;22.86;95.70;96258.25;5038020;28;20205;-72
2022/09/07 08:48:13;;;;;;;9.25;2.75;;;;;;;;;;5037715;28;20216;-72
2022/09/07 08:50:47;;;;;;;7.13;2.45;;;;;;;23.13;89.52;96258.28;5037160;28;20231;-73
2022/09/07 08:53:15;;;;;;;4.57;2.03;;;;;;;23.23;89.33;96267.28;5037193;28;20215;-72
2022/09/07 08:55:49;;;;;;;4.13;2.20;;;;;;;23.31;88.27;96264.91;5037769;28;20208;-72
2022/09/07 08:58:20;;;;;;;6.45;2.28;;;;;;;23.54;89.08;96264.59;5038193;28;20208;-72
2022/09/07 09:00:50;;;;;;;6.20;2.08;;;;;;;23.61;87.26;96262.50;5037463;28;20685;-72
2022/09/07 09:03:21;;;;;;;2.47;1.73;;;;;;;23.57;85.37;96260.56;5036713;28;20209;-72
2022/09/07 09:05:58;;;;;;;4.07;2.13;;;;;;;23.68;85.03;96257.72;5038082;28;20205;-72
2022/09/07 09:08:46;;;;;;;4.78;2.00;;;;;;;23.76;84.38;96259.16;5037452;28;20205;-72
2022/09/07 09:11:19;;;;;;;4.25;1.52;;;;;;;23.65;83.85;96258.22;5037042;28;20225;-72
2022/09/07 09:13:55;;;;;;;6.70;2.10;;;;;;;23.71;84.25;96257.22;5037251;28;20201;-72
2022/09/07 09:16:31;;;;;;;4.03;2.10;;;;;;;23.75;86.67;96252.13;5037722;28;20217;-72
2022/09/07 09:19:11;;;;;;;4.95;2.05;;;;;;;23.94;84.44;96246.91;5036772;28;20208;-72
2022/09/07 09:21:40;;;;;;;8.93;2.35;;;;;;;23.98;84.29;96247.19;5037153;28;20229;-72
2022/09/07 09:24:14;;;;;;;2.80;1.75;;;;;;;24.02;82.74;96240.22;5036806;28;20209;-72
2022/09/07 09:26:45;;;;;;;4.05;1.85;;;;;;;24.12;83.80;96243.78;5037029;28;20859;-72
2022/09/07 09:29:12;;;;;;;5.97;2.30;;;;;;;24.09;83.59;96233.50;5037202;28;20209;-72
2022/09/07 09:31:40;;;;;;;5.88;2.33;;;;;;;24.16;81.90;96223.34;5037320;28;20232;-72
2022/09/07 09:34:11;;;;;;;5.15;2.03;;;;;;;24.19;80.99;96222.81;5036105;28;20205;-72
2022/09/07 09:36:43;;;;;;;4.80;2.10;;;;;;;24.39;82.31;96214.88;5037780;28;20740;-72
2022/09/07 09:39:31;;;;;;;8.88;2.53;;;;;;;24.62;83.92;96215.22;5037031;28;20205;-72
2022/09/07 09:42:01;;;;;;;4.93;1.73;;;;;;;24.38;80.58;96215.94;5036662;28;20209;-73
2022/09/07 09:44:33;;;;;;;4.28;1.95;;;;;;;24.42;79.76;96208.16;5036374;28;20483;-72
2022/09/07 09:47:02;;;;;;;5.00;2.10;;;;;;;24.36;81.04;96218.03;5036937;28;20232;-72
2022/09/07 09:49:35;;;;;;;4.95;2.40;;;;;;;24.72;81.36;96212.56;5036349;28;20300;-72
2022/09/07 09:52:03;;;;;;;3.33;2.20;;;;;;;24.69;78.85;96217.66;5036534;28;20715;-72
2022/09/07 09:54:33;;;;;;;10.07;2.35;;;;;;;24.80;80.77;96213.94;5036255;28;20310;-72
2022/09/07 09:57:00;;;;;;;5.28;2.20;;;;;;;24.77;77.55;96214.44;5036725;28;20221;-73
2022/09/07 09:59:30;;;;;;;3.83;1.85;;;;;;;24.75;77.48;96213.91;5036994;28;20312;-72
2022/09/07 10:01:58;;;;;;;4.63;2.20;;;;;;;24.82;79.35;96209.91;5035807;28;20205;-72
2022/09/07 10:04:31;;;;;;;4.75;2.20;;;;;;;25.04;78.18;96205.09;5035627;28;20292;-72
2022/09/07 10:07:06;;;;;;;5.35;2.60;;;;;;;25.10;76.59;96197.84;5036517;28;20590;-72
2022/09/07 10:09:36;;;;;;;5.80;2.38;;;;;;;25.22;77.00;96189.22;5036258;28;20471;-72
2022/09/07 10:12:04;;;;;;;4.35;2.00;;;;;;;25.16;75.61;96196.78;5035342;28;20537;-72
2022/09/07 10:14:33;;;;;;;4.65;1.98;;;;;;;25.41;76.21;96192.22;5036119;28;20197;-72
2022/09/07 10:17:01;;;;;;;4.75;2.17;;;;;;;25.42;75.57;96183.00;5036792;28;20599;-73
2022/09/07 10:19:34;;;;;;;4.43;1.92;;;;;;;25.57;76.61;96188.41;5036138;28;20205;-72
2022/09/07 10:22:02;;;;;;;4.93;1.80;;;;;;;25.72;76.59;96186.53;5035267;28;20771;-73
2022/09/07 10:24:37;;;;;;;3.05;1.92;;;;;;;25.71;72.91;96176.03;5036372;28;20208;-73
2022/09/07 10:27:19;;;;;;;6.38;2.15;;;;;;;25.76;72.58;96176.81;5035275;28;20229;-72
2022/09/07 10:29:46;;;;;;;4.18;2.10;;;;;;;25.71;73.62;96173.31;5036624;28;20686;-72
2022/09/07 10:32:25;;;;;;;4.43;1.88;;;;;;;25.75;72.15;96174.38;5035217;28;20586;-72
2022/09/07 10:35:03;;;;;;;3.17;1.52;;;;;;;25.72;72.16;96170.34;5036041;28;20291;-72
2022/09/07 10:37:37;;;;;;;5.50;1.70;;;;;;;25.87;72.45;96163.03;5035238;28;20224;-73
2022/09/07 10:40:18;;;;;;;4.47;1.85;;;;;;;25.77;73.09;96162.25;5036144;28;20211;-73
2022/09/07 10:42:52;;;;;;;4.45;2.45;;;;;;;25.85;71.08;96151.69;5034830;28;20219;-73
2022/09/07 10:45:22;;;;;;;6.75;1.55;;;;;;;25.66;73.10;96165.19;5035955;28;20679;-73
2022/09/07 10:47:57;;;;;;;5.75;2.08;;;;;;;25.92;71.31;96157.59;5035678;28;20224;-73
2022/09/07 10:50:32;;;;;;;4.13;1.90;;;;;;;26.00;70.98;96154.34;5035796;28;20208;-73
2022/09/07 10:53:13;;;;;;;2.22;1.48;;;;;;;26.31;69.29;96157.75;5034529;28;20208;-73
2022/09/07 10:55:42;;;;;;;2.00;1.55;;;;;;;26.24;69.35;96154.56;5036199;28;21427;-72
2022/09/07 10:58:23;;;;;;;4.90;2.05;;;;;;;26.17;67.97;96154.84;5035157;28;20233;-72
2022/09/07 11:01:01;;;;;;;8.82;2.05;;;;;;;26.31;68.69;96150.47;5035034;28;20201;-73
2022/09/07 11:03:55;;;;;;;4.88;1.80;;;;;;;26.65;67.58;96143.28;5034218;28;20205;-73
2022/09/07 11:06:30;;;;;;;6.22;1.92;;;;;;;26.59;67.34;96142.53;5035429;28;20224;-73
2022/09/07 11:09:28;;;;;;;6.05;2.05;;;;;;;26.71;68.72;96131.38;5035208;28;21185;-72
2022/09/07 11:12:01;;;;;;;4.00;1.92;;;;;;;26.81;67.31;96132.13;5035288;28;20231;-73
2022/09/07 11:14:31;;;;;;;7.47;2.08;;;;;;;26.69;64.96;96128.13;5037827;28;20247;-73
2022/09/07 11:17:01;;;;;;;6.57;1.60;;;;;;;26.73;65.05;96130.00;5040225;28;20225;-73
2022/09/07 11:19:31;;;;;;;5.03;1.90;;;;;;;26.86;65.87;96117.72;5040686;28;20200;-73
2022/09/07 11:22:07;;;;;;;6.40;2.08;;;;;;;26.95;67.01;96116.91;5039643;28;20925;-73
2022/09/07 11:24:39;;;;;;;9.02;2.10;;;;;;;27.27;68.57;96115.28;5038471;28;20864;-73
2022/09/07 11:27:10;;;;;;;3.13;1.98;;;;;;;27.30;66.29;96125.56;5039125;28;20756;-73
2022/09/07 11:29:44;;;;;;;4.13;1.83;;;;;;;27.08;65.17;96115.47;5040562;28;20209;-73
2022/09/07 11:32:18;;;;;;;5.00;1.90;;;;;;;27.09;65.65;96120.59;5039191;28;20217;-73
2022/09/07 11:34:50;;;;;;;2.25;1.38;;;;;;;27.05;65.94;96116.84;5038865;28;20201;-73